PWSweather.com
Personal Weather Stations
Station Observations
REBOX73
Petalia At Mount Pantokrator, CorfuGR 49081

Petalia At Mount PantokratorCorfuGR 49081

Lat: 39.747915, Lon: 19.841466

Elevation: 2132

Station Type: ws1080

http://pantokratoras-kerkyra.meteoclub.gr/

Latest ConditionsUpdated 9:00:01 PM GMT+01:01 Friday, Aug 18, 2017
Currently Today's Max Today's Min Today's Average
Temperature 72.3°F22.4°C 88.2°F31.2°C 72.1°F22.3°C 79.1°F26.2°C
Dew Point 51.5°F10.8°C 60.9°F16.1°C 48.7°F9.3°C 52.9°F11.6°C
Winds Calm Calm 5.0 mph N8.0 kmh N - 1.3 mph 2.1 kmh
Wind Gusts 1.0 mph1.6 kmh 12.0 mph19.3 kmh - -
Humidity 48% 48% 30% 41%
Pressure 30.01 in1016.3 mb 30.02 in1016.6 mb 29.95 in1014.2 mb -
Hour Temp Dew Point Humidity Winds Wind Gusts Pressure Precip Precip Rate Daily Precip Total
09:00 PM 72.3°F22.4°C 51.5°F10.8°C 48% Calm Calm 1.0 mph1.6 kmh 30.01 in1016.3 mb 0.00 in0.0 mm 0.00 in0.0 mm 0.00 in0.0 mm
08:45 PM 72.3°F22.4°C 51.0°F10.6°C 47% Calm Calm -- 30.01 in1016.3 mb 0.00 in0.0 mm 0.00 in0.0 mm 0.00 in0.0 mm
08:30 PM 72.7°F22.6°C 49.5°F9.7°C 44% Calm Calm -- 30.01 in1016.3 mb 0.00 in0.0 mm 0.00 in0.0 mm 0.00 in0.0 mm
08:15 PM 73.2°F22.9°C 48.7°F9.3°C 42% Calm Calm -- 30.01 in1016.3 mb 0.00 in0.0 mm 0.00 in0.0 mm 0.00 in0.0 mm
08:00 PM 74.7°F23.7°C 48.7°F9.3°C 40% Calm Calm -- 30.01 in1016.3 mb 0.00 in0.0 mm 0.00 in0.0 mm 0.00 in0.0 mm
07:45 PM 75.6°F24.2°C 48.9°F9.4°C 39% Calm Calm 2.0 mph3.2 kmh 30.00 in1015.9 mb 0.00 in0.0 mm 0.00 in0.0 mm 0.00 in0.0 mm
07:30 PM 75.7°F24.3°C 49.7°F9.8°C 40% 1.0 mph ENE1.6 kmh ENE 3.0 mph4.8 kmh 30.00 in1015.9 mb 0.00 in0.0 mm 0.00 in0.0 mm 0.00 in0.0 mm
07:15 PM 75.6°F24.2°C 50.2°F10.1°C 41% Calm Calm 2.0 mph3.2 kmh 30.00 in1015.9 mb 0.00 in0.0 mm 0.00 in0.0 mm 0.00 in0.0 mm
07:00 PM 75.7°F24.3°C 51.0°F10.6°C 42% Calm Calm 2.0 mph3.2 kmh 30.00 in1015.9 mb 0.00 in0.0 mm 0.00 in0.0 mm 0.00 in0.0 mm
06:45 PM 76.6°F24.8°C 51.2°F10.7°C 41% 1.0 mph NE1.6 kmh NE 5.0 mph8.0 kmh 30.00 in1015.9 mb 0.00 in0.0 mm 0.00 in0.0 mm 0.00 in0.0 mm
06:30 PM 76.8°F24.9°C 51.3°F10.7°C 41% 2.0 mph NE3.2 kmh NE 6.0 mph9.7 kmh 29.99 in1015.6 mb 0.00 in0.0 mm 0.00 in0.0 mm 0.00 in0.0 mm
06:15 PM 77.4°F25.2°C 53.1°F11.7°C 43% Calm Calm 3.0 mph4.8 kmh 29.99 in1015.6 mb 0.00 in0.0 mm 0.00 in0.0 mm 0.00 in0.0 mm
06:00 PM 79.0°F26.1°C 53.3°F11.8°C 41% Calm Calm 3.0 mph4.8 kmh 29.99 in1015.6 mb 0.00 in0.0 mm 0.00 in0.0 mm 0.00 in0.0 mm
05:45 PM 80.1°F26.7°C 53.6°F12.0°C 40% 1.0 mph WSW1.6 kmh WSW 4.0 mph6.4 kmh 29.99 in1015.6 mb 0.00 in0.0 mm 0.00 in0.0 mm 0.00 in0.0 mm
05:30 PM 80.8°F27.1°C 54.2°F12.3°C 40% 1.0 mph WNW1.6 kmh WNW 5.0 mph8.0 kmh 29.99 in1015.6 mb 0.00 in0.0 mm 0.00 in0.0 mm 0.00 in0.0 mm
05:15 PM 81.0°F27.2°C 54.4°F12.4°C 40% 2.0 mph WSW3.2 kmh WSW 6.0 mph9.7 kmh 29.99 in1015.6 mb 0.00 in0.0 mm 0.00 in0.0 mm 0.00 in0.0 mm
05:00 PM 81.3°F27.4°C 54.0°F12.2°C 39% 2.0 mph W3.2 kmh W 7.0 mph11.3 kmh 29.99 in1015.6 mb 0.00 in0.0 mm 0.00 in0.0 mm 0.00 in0.0 mm
04:45 PM 82.0°F27.8°C 55.3°F12.9°C 40% 2.0 mph W3.2 kmh W 8.0 mph12.9 kmh 29.98 in1015.2 mb 0.00 in0.0 mm 0.00 in0.0 mm 0.00 in0.0 mm
04:30 PM 82.0°F27.8°C 55.3°F12.9°C 40% 3.0 mph W4.8 kmh W 12.0 mph19.3 kmh 29.99 in1015.6 mb 0.00 in0.0 mm 0.00 in0.0 mm 0.00 in0.0 mm
04:15 PM 82.6°F28.1°C 55.1°F12.8°C 39% 3.0 mph NNW4.8 kmh NNW 10.0 mph16.1 kmh 29.99 in1015.6 mb 0.00 in0.0 mm 0.00 in0.0 mm 0.00 in0.0 mm
04:00 PM 83.1°F28.4°C 54.1°F12.3°C 37% 3.0 mph NE4.8 kmh NE 10.0 mph16.1 kmh 29.99 in1015.6 mb 0.00 in0.0 mm 0.00 in0.0 mm 0.00 in0.0 mm
03:45 PM 83.5°F28.6°C 54.5°F12.5°C 37% 3.0 mph W4.8 kmh W 8.0 mph12.9 kmh 29.99 in1015.6 mb 0.00 in0.0 mm 0.00 in0.0 mm 0.00 in0.0 mm
03:30 PM 83.8°F28.8°C 55.5°F13.1°C 38% 3.0 mph NW4.8 kmh NW 8.0 mph12.9 kmh 29.99 in1015.6 mb 0.00 in0.0 mm 0.00 in0.0 mm 0.00 in0.0 mm
03:15 PM 83.8°F28.8°C 56.2°F13.4°C 39% 3.0 mph NW4.8 kmh NW 7.0 mph11.3 kmh 29.99 in1015.6 mb 0.00 in0.0 mm 0.00 in0.0 mm 0.00 in0.0 mm
03:00 PM 83.3°F28.5°C 55.8°F13.2°C 39% 3.0 mph W4.8 kmh W 9.0 mph14.5 kmh 29.99 in1015.6 mb 0.00 in0.0 mm 0.00 in0.0 mm 0.00 in0.0 mm
02:45 PM 83.8°F28.8°C 56.2°F13.4°C 39% 3.0 mph WNW4.8 kmh WNW 10.0 mph16.1 kmh 30.00 in1015.9 mb 0.00 in0.0 mm 0.00 in0.0 mm 0.00 in0.0 mm
02:30 PM 84.0°F28.9°C 57.8°F14.3°C 41% 3.0 mph W4.8 kmh W 9.0 mph14.5 kmh 30.00 in1015.9 mb 0.00 in0.0 mm 0.00 in0.0 mm 0.00 in0.0 mm
02:15 PM 84.6°F29.2°C 58.3°F14.6°C 41% 3.0 mph NW4.8 kmh NW 9.0 mph14.5 kmh 30.00 in1015.9 mb 0.00 in0.0 mm 0.00 in0.0 mm 0.00 in0.0 mm
02:00 PM 83.8°F28.8°C 58.3°F14.6°C 42% 3.0 mph N4.8 kmh N 7.0 mph11.3 kmh 30.00 in1015.9 mb 0.00 in0.0 mm 0.00 in0.0 mm 0.00 in0.0 mm
01:45 PM 83.7°F28.7°C 60.7°F15.9°C 46% 2.0 mph NW3.2 kmh NW 7.0 mph11.3 kmh 30.00 in1015.9 mb 0.00 in0.0 mm 0.00 in0.0 mm 0.00 in0.0 mm
01:30 PM 84.6°F29.2°C 60.9°F16.1°C 45% 3.0 mph NW4.8 kmh NW 7.0 mph11.3 kmh 30.00 in1015.9 mb 0.00 in0.0 mm 0.00 in0.0 mm 0.00 in0.0 mm
01:15 PM 84.6°F29.2°C 59.6°F15.3°C 43% 3.0 mph NW4.8 kmh NW 10.0 mph16.1 kmh 30.00 in1015.9 mb 0.00 in0.0 mm 0.00 in0.0 mm 0.00 in0.0 mm
01:00 PM 85.5°F29.7°C 59.1°F15.1°C 41% 3.0 mph NW4.8 kmh NW 8.0 mph12.9 kmh 30.00 in1015.9 mb 0.00 in0.0 mm 0.00 in0.0 mm 0.00 in0.0 mm
12:45 PM 85.5°F29.7°C 59.8°F15.4°C 42% 3.0 mph WNW4.8 kmh WNW 10.0 mph16.1 kmh 30.00 in1015.9 mb 0.00 in0.0 mm 0.00 in0.0 mm 0.00 in0.0 mm
12:30 PM 85.6°F29.8°C 58.5°F14.7°C 40% 4.0 mph NW6.4 kmh NW 9.0 mph14.5 kmh 30.01 in1016.3 mb 0.00 in0.0 mm 0.00 in0.0 mm 0.00 in0.0 mm
12:15 PM 86.4°F30.2°C 57.0°F13.9°C 37% 3.0 mph NNE4.8 kmh NNE 8.0 mph12.9 kmh 30.01 in1016.3 mb 0.00 in0.0 mm 0.00 in0.0 mm 0.00 in0.0 mm
12:00 PM 86.4°F30.2°C 53.9°F12.2°C 33% 3.0 mph NW4.8 kmh NW 8.0 mph12.9 kmh 30.01 in1016.3 mb 0.00 in0.0 mm 0.00 in0.0 mm 0.00 in0.0 mm
11:45 AM 87.3°F30.7°C 53.8°F12.1°C 32% 3.0 mph WNW4.8 kmh WNW 9.0 mph14.5 kmh 30.01 in1016.3 mb 0.00 in0.0 mm 0.00 in0.0 mm 0.00 in0.0 mm
11:30 AM 86.5°F30.3°C 54.0°F12.2°C 33% 5.0 mph N8.0 kmh N 10.0 mph16.1 kmh 30.02 in1016.6 mb 0.00 in0.0 mm 0.00 in0.0 mm 0.00 in0.0 mm
11:15 AM 87.1°F30.6°C 53.6°F12.0°C 32% 3.0 mph N4.8 kmh N 8.0 mph12.9 kmh 30.01 in1016.3 mb 0.00 in0.0 mm 0.00 in0.0 mm 0.00 in0.0 mm
11:00 AM 88.2°F31.2°C 53.7°F12.1°C 31% 2.0 mph NW3.2 kmh NW 9.0 mph14.5 kmh 30.02 in1016.6 mb 0.00 in0.0 mm 0.00 in0.0 mm 0.00 in0.0 mm
10:45 AM 87.6°F30.9°C 54.1°F12.3°C 32% 2.0 mph W3.2 kmh W 5.0 mph8.0 kmh 30.02 in1016.6 mb 0.00 in0.0 mm 0.00 in0.0 mm 0.00 in0.0 mm
10:30 AM 86.7°F30.4°C 54.2°F12.3°C 33% 2.0 mph WNW3.2 kmh WNW 6.0 mph9.7 kmh 30.02 in1016.6 mb 0.00 in0.0 mm 0.00 in0.0 mm 0.00 in0.0 mm
10:15 AM 84.7°F29.3°C 52.4°F11.3°C 33% 1.0 mph N1.6 kmh N 4.0 mph6.4 kmh 30.02 in1016.6 mb 0.00 in0.0 mm 0.00 in0.0 mm 0.00 in0.0 mm
10:00 AM 85.1°F29.5°C 52.8°F11.6°C 33% 2.0 mph NE3.2 kmh NE 7.0 mph11.3 kmh 30.02 in1016.6 mb 0.00 in0.0 mm 0.00 in0.0 mm 0.00 in0.0 mm
09:45 AM 85.5°F29.7°C 54.7°F12.6°C 35% 1.0 mph W1.6 kmh W 4.0 mph6.4 kmh 30.02 in1016.6 mb 0.00 in0.0 mm 0.00 in0.0 mm 0.00 in0.0 mm
09:30 AM 85.8°F29.9°C 55.0°F12.8°C 35% 2.0 mph WNW3.2 kmh WNW 7.0 mph11.3 kmh 30.02 in1016.6 mb 0.00 in0.0 mm 0.00 in0.0 mm 0.00 in0.0 mm
09:15 AM 85.6°F29.8°C 56.4°F13.6°C 37% 1.0 mph NW1.6 kmh NW 5.0 mph8.0 kmh 30.02 in1016.6 mb 0.00 in0.0 mm 0.00 in0.0 mm 0.00 in0.0 mm
09:00 AM 86.5°F30.3°C 52.3°F11.3°C 31% Calm Calm 2.0 mph3.2 kmh 30.02 in1016.6 mb 0.00 in0.0 mm 0.00 in0.0 mm 0.00 in0.0 mm
08:45 AM 85.5°F29.7°C 50.5°F10.3°C 30% 1.0 mph SE1.6 kmh SE 5.0 mph8.0 kmh 30.02 in1016.6 mb 0.00 in0.0 mm 0.00 in0.0 mm 0.00 in0.0 mm
08:30 AM 84.0°F28.9°C 50.1°F10.1°C 31% 2.0 mph NNW3.2 kmh NNW 5.0 mph8.0 kmh 30.02 in1016.6 mb 0.00 in0.0 mm 0.00 in0.0 mm 0.00 in0.0 mm
08:15 AM 83.1°F28.4°C 49.3°F9.6°C 31% 2.0 mph NE3.2 kmh NE 6.0 mph9.7 kmh 30.02 in1016.6 mb 0.00 in0.0 mm 0.00 in0.0 mm 0.00 in0.0 mm
08:00 AM 82.8°F28.2°C 52.3°F11.3°C 35% 1.0 mph S1.6 kmh S 4.0 mph6.4 kmh 30.02 in1016.6 mb 0.00 in0.0 mm 0.00 in0.0 mm 0.00 in0.0 mm
07:45 AM 81.1°F27.3°C 51.7°F10.9°C 36% Calm Calm 2.0 mph3.2 kmh 30.01 in1016.3 mb 0.00 in0.0 mm 0.00 in0.0 mm 0.00 in0.0 mm
07:30 AM 79.0°F26.1°C 52.6°F11.4°C 40% 1.0 mph E1.6 kmh E 2.0 mph3.2 kmh 30.01 in1016.3 mb 0.00 in0.0 mm 0.00 in0.0 mm 0.00 in0.0 mm
07:15 AM 75.7°F24.3°C 49.7°F9.8°C 40% Calm Calm 2.0 mph3.2 kmh 30.01 in1016.3 mb 0.00 in0.0 mm 0.00 in0.0 mm 0.00 in0.0 mm
07:00 AM 74.8°F23.8°C 51.5°F10.8°C 44% Calm Calm 2.0 mph3.2 kmh 30.00 in1015.9 mb 0.00 in0.0 mm 0.00 in0.0 mm 0.00 in0.0 mm
06:45 AM 73.8°F23.2°C 51.7°F10.9°C 46% Calm Calm 2.0 mph3.2 kmh 30.00 in1015.9 mb 0.00 in0.0 mm 0.00 in0.0 mm 0.00 in0.0 mm
06:30 AM 73.0°F22.8°C 50.4°F10.2°C 45% Calm Calm 2.0 mph3.2 kmh 30.00 in1015.9 mb 0.00 in0.0 mm 0.00 in0.0 mm 0.00 in0.0 mm
06:15 AM 72.9°F22.7°C 50.3°F10.2°C 45% 1.0 mph SE1.6 kmh SE 2.0 mph3.2 kmh 29.99 in1015.6 mb 0.00 in0.0 mm 0.00 in0.0 mm 0.00 in0.0 mm
06:00 AM 72.1°F22.3°C 50.2°F10.1°C 46% 1.0 mph ESE1.6 kmh ESE 2.0 mph3.2 kmh 29.99 in1015.6 mb 0.00 in0.0 mm 0.00 in0.0 mm 0.00 in0.0 mm
05:45 AM 72.3°F22.4°C 49.8°F9.9°C 45% Calm Calm 2.0 mph3.2 kmh 29.99 in1015.6 mb 0.00 in0.0 mm 0.00 in0.0 mm 0.00 in0.0 mm
05:30 AM 72.7°F22.6°C 49.5°F9.7°C 44% Calm Calm 2.0 mph3.2 kmh 29.99 in1015.6 mb 0.00 in0.0 mm 0.00 in0.0 mm 0.00 in0.0 mm
05:15 AM 72.9°F22.7°C 49.1°F9.5°C 43% Calm Calm 1.0 mph1.6 kmh 29.98 in1015.2 mb 0.00 in0.0 mm 0.00 in0.0 mm 0.00 in0.0 mm
05:00 AM 73.0°F22.8°C 49.2°F9.6°C 43% Calm Calm 1.0 mph1.6 kmh 29.98 in1015.2 mb 0.00 in0.0 mm 0.00 in0.0 mm 0.00 in0.0 mm
04:45 AM 73.2°F22.9°C 49.4°F9.7°C 43% Calm Calm 2.0 mph3.2 kmh 29.98 in1015.2 mb 0.00 in0.0 mm 0.00 in0.0 mm 0.00 in0.0 mm
04:30 AM 73.9°F23.3°C 49.4°F9.7°C 42% 1.0 mph ESE1.6 kmh ESE 3.0 mph4.8 kmh 29.97 in1014.9 mb 0.00 in0.0 mm 0.00 in0.0 mm 0.00 in0.0 mm
04:15 AM 73.9°F23.3°C 50.0°F10.0°C 43% 1.0 mph ESE1.6 kmh ESE 2.0 mph3.2 kmh 29.97 in1014.9 mb 0.00 in0.0 mm 0.00 in0.0 mm 0.00 in0.0 mm
04:00 AM 73.6°F23.1°C 50.3°F10.2°C 44% 1.0 mph ESE1.6 kmh ESE 2.0 mph3.2 kmh 29.97 in1014.9 mb 0.00 in0.0 mm 0.00 in0.0 mm 0.00 in0.0 mm
03:45 AM 73.6°F23.1°C 50.9°F10.5°C 45% 1.0 mph ESE1.6 kmh ESE 2.0 mph3.2 kmh 29.96 in1014.6 mb 0.00 in0.0 mm 0.00 in0.0 mm 0.00 in0.0 mm
03:30 AM 73.8°F23.2°C 49.9°F9.9°C 43% 1.0 mph ESE1.6 kmh ESE 2.0 mph3.2 kmh 29.96 in1014.6 mb 0.00 in0.0 mm 0.00 in0.0 mm 0.00 in0.0 mm
03:15 AM 73.0°F22.8°C 51.0°F10.6°C 46% 1.0 mph ESE1.6 kmh ESE 2.0 mph3.2 kmh 29.96 in1014.6 mb 0.00 in0.0 mm 0.00 in0.0 mm 0.00 in0.0 mm
03:00 AM 73.2°F22.9°C 50.6°F10.3°C 45% Calm Calm 1.0 mph1.6 kmh 29.96 in1014.6 mb 0.00 in0.0 mm 0.00 in0.0 mm 0.00 in0.0 mm
02:45 AM 73.6°F23.1°C 50.9°F10.5°C 45% Calm Calm 1.0 mph1.6 kmh 29.96 in1014.6 mb 0.00 in0.0 mm 0.00 in0.0 mm 0.00 in0.0 mm
02:30 AM 73.2°F22.9°C 50.6°F10.3°C 45% Calm Calm 1.0 mph1.6 kmh 29.96 in1014.6 mb 0.00 in0.0 mm 0.00 in0.0 mm 0.00 in0.0 mm
02:15 AM 73.6°F23.1°C 50.9°F10.5°C 45% Calm Calm 2.0 mph3.2 kmh 29.96 in1014.6 mb 0.00 in0.0 mm 0.00 in0.0 mm 0.00 in0.0 mm
02:00 AM 73.4°F23.0°C 51.4°F10.8°C 46% Calm Calm 2.0 mph3.2 kmh 29.95 in1014.2 mb 0.00 in0.0 mm 0.00 in0.0 mm 0.00 in0.0 mm
01:45 AM 73.4°F23.0°C 51.9°F11.1°C 47% Calm Calm 1.0 mph1.6 kmh 29.95 in1014.2 mb 0.00 in0.0 mm 0.00 in0.0 mm 0.00 in0.0 mm
01:30 AM 73.9°F23.3°C 52.4°F11.3°C 47% Calm Calm 2.0 mph3.2 kmh 29.96 in1014.6 mb 0.00 in0.0 mm 0.00 in0.0 mm 0.00 in0.0 mm
01:15 AM 73.9°F23.3°C 52.4°F11.3°C 47% Calm Calm 1.0 mph1.6 kmh 29.96 in1014.6 mb 0.00 in0.0 mm 0.00 in0.0 mm 0.00 in0.0 mm
01:00 AM 74.7°F23.7°C 52.5°F11.4°C 46% Calm Calm 1.0 mph1.6 kmh 29.96 in1014.6 mb 0.00 in0.0 mm 0.00 in0.0 mm 0.00 in0.0 mm
12:45 AM 74.7°F23.7°C 52.5°F11.4°C 46% Calm Calm 1.0 mph1.6 kmh 29.96 in1014.6 mb 0.00 in0.0 mm 0.00 in0.0 mm 0.00 in0.0 mm
12:30 AM 75.2°F24.0°C 52.4°F11.3°C 45% Calm Calm 1.0 mph1.6 kmh 29.96 in1014.6 mb 0.00 in0.0 mm 0.00 in0.0 mm 0.00 in0.0 mm
12:15 AM 75.2°F24.0°C 52.4°F11.3°C 45% Calm Calm 2.0 mph3.2 kmh 29.96 in1014.6 mb 0.00 in0.0 mm 0.00 in0.0 mm 0.00 in0.0 mm
12:00 AM 75.6°F24.2°C 52.1°F11.2°C 44% Calm Calm 1.0 mph1.6 kmh 29.96 in1014.6 mb 0.00 in0.0 mm 0.00 in0.0 mm 0.00 in0.0 mm